createdAt,value
2022-12-23T00:01:06.061Z,87.61
2022-12-23T00:03:33.139Z,87.77
2022-12-23T00:06:00.824Z,87.02
2022-12-23T00:08:27.681Z,87.23
2022-12-23T00:10:56.789Z,87.71
2022-12-23T00:13:42.125Z,87.64
2022-12-23T00:16:13.730Z,86.87
2022-12-23T00:18:40.871Z,87.14
2022-12-23T00:21:13.771Z,86.98
2022-12-23T00:23:42.947Z,87.77
2022-12-23T00:26:24.007Z,87.81
2022-12-23T00:28:50.900Z,88.04
2022-12-23T00:31:19.396Z,88.15
2022-12-23T00:33:48.070Z,87.06
2022-12-23T00:36:18.261Z,87.43
2022-12-23T00:39:03.604Z,87.47
2022-12-23T00:41:48.885Z,87.14
2022-12-23T00:44:15.583Z,87.25
2022-12-23T00:46:42.034Z,87.80
2022-12-23T00:49:29.823Z,86.92
2022-12-23T00:51:56.182Z,87.53
2022-12-23T00:54:22.728Z,87.51
2022-12-23T00:56:49.092Z,87.46
2022-12-23T00:59:15.592Z,87.42
2022-12-23T01:02:00.764Z,88.02
2022-12-23T01:04:45.887Z,88.18
2022-12-23T01:07:12.368Z,87.92
2022-12-23T01:09:38.905Z,87.79
2022-12-23T01:12:05.568Z,87.85
2022-12-23T01:14:32.305Z,87.31
2022-12-23T01:16:58.735Z,88.33
2022-12-23T01:19:25.264Z,87.94
2022-12-23T01:21:51.685Z,88.09
2022-12-23T01:24:18.095Z,87.43
2022-12-23T01:26:44.511Z,88.13
2022-12-23T01:29:11.489Z,87.58
2022-12-23T01:31:37.988Z,87.84
2022-12-23T01:34:04.434Z,87.85
2022-12-23T01:36:30.938Z,88.31
2022-12-23T01:38:57.392Z,88.08
2022-12-23T01:41:45.590Z,88.31
2022-12-23T01:44:45.704Z,88.63
2022-12-23T01:47:17.185Z,88.55
2022-12-23T01:49:43.820Z,87.92
2022-12-23T01:52:11.809Z,88.42
2022-12-23T01:54:39.234Z,87.58
2022-12-23T01:57:05.835Z,88.01
2022-12-23T01:59:50.877Z,88.34
2022-12-23T02:02:35.920Z,87.90
2022-12-23T02:05:02.787Z,87.79
2022-12-23T02:07:47.877Z,87.58
2022-12-23T02:10:14.303Z,88.39
2022-12-23T02:13:16.083Z,88.66
2022-12-23T02:16:13.758Z,87.82
2022-12-23T02:18:56.574Z,88.18
2022-12-23T02:22:00.420Z,87.77
2022-12-23T02:24:38.977Z,88.61
2022-12-23T02:27:10.223Z,88.18
2022-12-23T02:30:11.765Z,88.71
2022-12-23T02:33:02.919Z,89.04
2022-12-23T02:35:40.650Z,88.59
2022-12-23T02:38:15.733Z,88.99
2022-12-23T02:41:27.418Z,88.07
2022-12-23T02:44:11.901Z,88.19
2022-12-23T02:46:45.645Z,88.75
2022-12-23T02:49:18.537Z,88.57
2022-12-23T02:51:50.264Z,87.99
2022-12-23T02:54:24.802Z,88.38
2022-12-23T02:56:53.943Z,89.38
2022-12-23T02:59:28.036Z,88.90
2022-12-23T03:01:55.355Z,89.25
2022-12-23T03:04:21.873Z,89.12
2022-12-23T03:07:06.960Z,89.36
2022-12-23T03:09:49.664Z,88.46
2022-12-23T03:12:30.116Z,89.03
2022-12-23T03:15:40.825Z,89.53
2022-12-23T03:18:31.356Z,89.48
2022-12-23T03:21:12.141Z,89.72
2022-12-23T03:24:03.740Z,89.10
2022-12-23T03:30:47.824Z,89.61
2022-12-23T03:33:24.878Z,88.93
2022-12-23T03:36:17.211Z,89.06
2022-12-23T03:38:46.749Z,88.95
2022-12-23T03:41:35.002Z,89.20
2022-12-23T03:44:12.830Z,89.80
2022-12-23T03:47:25.664Z,89.19
2022-12-23T03:50:04.202Z,89.81
2022-12-23T03:52:48.636Z,90.18
2022-12-23T03:55:36.416Z,90.57
2022-12-23T03:58:40.109Z,90.30
2022-12-23T04:01:19.384Z,90.68
2022-12-23T04:04:14.657Z,90.13
2022-12-23T04:06:55.255Z,89.76
2022-12-23T04:09:27.456Z,89.92
2022-12-23T04:12:00.678Z,89.82
2022-12-23T04:14:37.476Z,89.75
2022-12-23T04:17:17.948Z,90.41
2022-12-23T04:19:51.738Z,89.94
2022-12-23T04:22:22.654Z,89.94
2022-12-23T04:25:08.491Z,90.80
2022-12-23T04:27:44.144Z,90.97
2022-12-23T04:30:18.647Z,90.47
2022-12-23T04:33:05.697Z,91.20
2022-12-23T04:35:54.519Z,91.71
2022-12-23T04:38:33.676Z,90.50
2022-12-23T04:41:30.075Z,91.34
2022-12-23T04:44:00.237Z,91.32
2022-12-23T04:46:38.666Z,90.79
2022-12-23T04:49:22.383Z,91.27
2022-12-23T04:52:02.182Z,90.66
2022-12-23T04:54:45.537Z,90.56
2022-12-23T05:00:47.175Z,90.77
2022-12-23T05:03:19.343Z,90.99
2022-12-23T05:06:21.207Z,92.01
2022-12-23T05:08:55.137Z,91.45
2022-12-23T05:11:41.882Z,91.46
2022-12-23T05:14:18.733Z,90.54
2022-12-23T05:20:00.392Z,90.76
2022-12-23T05:25:40.618Z,91.39
2022-12-23T05:28:49.934Z,91.58
2022-12-23T05:31:26.063Z,90.80
2022-12-23T05:34:05.954Z,91.84
2022-12-23T05:36:43.770Z,90.91
2022-12-23T05:40:21.492Z,90.97
2022-12-23T05:46:55.144Z,91.40
2022-12-23T05:50:04.539Z,91.40
2022-12-23T05:56:10.500Z,91.01
2022-12-23T05:58:43.841Z,91.70
2022-12-23T06:02:03.568Z,91.01
2022-12-23T06:04:36.618Z,90.67
2022-12-23T06:07:11.121Z,90.77
2022-12-23T06:09:52.266Z,91.15
2022-12-23T06:12:40.814Z,91.38
2022-12-23T06:15:16.497Z,91.44
2022-12-23T06:18:12.793Z,90.83
2022-12-23T06:21:43.365Z,91.61
2022-12-23T06:24:43.245Z,91.25
2022-12-23T06:27:28.690Z,91.31
2022-12-23T06:30:48.436Z,91.75
2022-12-23T06:33:21.778Z,92.08
2022-12-23T06:45:19.164Z,92.17
2022-12-23T06:47:45.718Z,91.46
2022-12-23T06:50:12.200Z,91.94
2022-12-23T06:52:38.605Z,92.07
2022-12-23T06:55:05.547Z,92.06
2022-12-23T06:57:32.007Z,92.10
2022-12-23T06:59:58.430Z,92.22
2022-12-23T07:02:24.946Z,92.12
2022-12-23T07:04:51.496Z,92.30
2022-12-23T07:07:18.034Z,91.96
2022-12-23T07:09:44.474Z,91.70
2022-12-23T07:12:11.297Z,91.81
2022-12-23T07:14:37.709Z,92.40
2022-12-23T07:17:04.219Z,91.85
2022-12-23T07:19:30.725Z,91.60
2022-12-23T07:21:57.118Z,92.58
2022-12-23T07:24:23.508Z,92.01
2022-12-23T07:26:50.900Z,91.81
2022-12-23T07:29:17.383Z,92.28
2022-12-23T07:31:43.880Z,92.23
2022-12-23T07:34:10.362Z,92.27
2022-12-23T07:36:36.842Z,92.29
2022-12-23T07:39:03.524Z,92.95
2022-12-23T07:41:29.963Z,92.56
2022-12-23T07:43:56.352Z,93.08
2022-12-23T07:46:22.787Z,92.37
2022-12-23T07:48:49.191Z,92.32
2022-12-23T07:51:15.831Z,92.82
2022-12-23T07:53:42.246Z,92.19
2022-12-23T07:56:08.791Z,92.97
2022-12-23T07:58:35.168Z,92.69
2022-12-23T08:01:03.718Z,93.01
2022-12-23T08:03:30.502Z,92.26
2022-12-23T08:06:15.204Z,93.02
2022-12-23T08:08:44.024Z,92.28
2022-12-23T08:11:11.904Z,93.28
2022-12-23T08:13:40.481Z,93.19
2022-12-23T08:16:07.721Z,92.56
2022-12-23T08:18:37.112Z,93.17
2022-12-23T08:21:04.812Z,93.00
2022-12-23T08:23:32.093Z,92.55
2022-12-23T08:26:07.859Z,92.56
2022-12-23T08:28:35.871Z,93.15
2022-12-23T08:31:07.296Z,92.22
2022-12-23T08:33:36.330Z,93.08
2022-12-23T08:36:03.246Z,92.61
2022-12-23T08:38:29.764Z,92.64
2022-12-23T08:40:56.455Z,92.96
2022-12-23T08:43:22.934Z,93.10
2022-12-23T08:45:49.627Z,93.08
2022-12-23T08:48:16.262Z,93.26
2022-12-23T08:50:44.670Z,92.21
2022-12-23T08:53:12.036Z,92.68
2022-12-23T08:55:44.339Z,93.37
2022-12-23T08:58:11.888Z,93.33
2022-12-23T09:00:38.949Z,92.50
2022-12-23T09:03:05.724Z,93.00
2022-12-23T09:05:33.047Z,92.89
2022-12-23T09:07:59.977Z,93.34
2022-12-23T09:10:26.518Z,93.25
2022-12-23T09:12:52.934Z,92.62
2022-12-23T09:15:19.568Z,93.12
2022-12-23T09:17:46.037Z,92.49
2022-12-23T09:20:12.785Z,93.17
2022-12-23T09:22:39.868Z,92.61
2022-12-23T09:25:06.377Z,93.45
2022-12-23T09:27:32.754Z,92.74
2022-12-23T09:29:59.202Z,93.59
2022-12-23T09:32:25.629Z,93.31
2022-12-23T09:34:52.071Z,93.58
2022-12-23T09:37:18.658Z,93.54
2022-12-23T09:39:45.167Z,93.02
2022-12-23T09:42:25.275Z,92.61
2022-12-23T09:45:20.975Z,92.67
2022-12-23T09:47:48.253Z,93.57
2022-12-23T09:50:23.548Z,93.07
2022-12-23T09:53:08.474Z,93.66
2022-12-23T09:55:54.057Z,92.74
2022-12-23T09:58:25.858Z,92.71
2022-12-23T10:01:05.310Z,92.90
2022-12-23T10:03:57.956Z,93.19
2022-12-23T10:06:28.645Z,93.06
2022-12-23T10:09:02.448Z,92.57
2022-12-23T10:11:33.628Z,93.53
2022-12-23T10:14:14.677Z,92.60
2022-12-23T10:16:47.100Z,93.19
2022-12-23T10:19:21.054Z,92.74
2022-12-23T10:21:52.389Z,92.83
2022-12-23T10:24:21.413Z,92.81
2022-12-23T10:27:01.259Z,92.84
2022-12-23T10:29:32.405Z,93.43
2022-12-23T10:32:17.120Z,93.73
2022-12-23T10:35:41.080Z,92.95
2022-12-23T10:38:40.731Z,92.85
2022-12-23T10:41:30.444Z,92.89
2022-12-23T10:44:07.062Z,92.79
2022-12-23T10:46:52.728Z,92.93
2022-12-23T10:49:52.960Z,92.83
2022-12-23T10:52:27.407Z,93.40
2022-12-23T10:54:53.864Z,92.96
2022-12-23T10:57:20.785Z,93.19
2022-12-23T10:59:47.368Z,93.08
2022-12-23T11:02:14.179Z,93.26
2022-12-23T11:04:45.339Z,93.07
2022-12-23T11:07:44.003Z,93.56
2022-12-23T11:10:32.975Z,93.40
2022-12-23T11:13:00.649Z,93.18
2022-12-23T11:15:28.903Z,93.01
2022-12-23T11:18:16.381Z,93.47
2022-12-23T11:20:45.713Z,93.20
2022-12-23T11:23:35.009Z,93.94
2022-12-23T11:26:06.156Z,93.39
2022-12-23T11:28:35.436Z,93.25
2022-12-23T11:31:14.393Z,93.98
2022-12-23T11:33:59.766Z,93.16
2022-12-23T11:36:28.810Z,94.19
2022-12-23T11:39:10.374Z,93.90
2022-12-23T11:41:40.430Z,93.66
2022-12-23T11:44:24.124Z,93.31
2022-12-23T11:46:50.723Z,93.87
2022-12-23T11:49:22.635Z,94.00
2022-12-23T11:52:01.798Z,93.73
2022-12-23T11:54:29.266Z,93.29
2022-12-23T11:56:56.879Z,93.75
2022-12-23T11:59:28.683Z,93.50
2022-12-23T12:01:58.816Z,93.81
2022-12-23T12:04:26.770Z,93.97
2022-12-23T12:06:56.674Z,93.66
2022-12-23T12:09:24.726Z,93.53
2022-12-23T12:12:07.133Z,93.38
2022-12-23T12:14:42.921Z,93.78
2022-12-23T12:17:32.273Z,93.50
2022-12-23T12:20:11.992Z,92.99
2022-12-23T12:22:44.347Z,93.94
2022-12-23T12:25:19.332Z,93.06
2022-12-23T12:27:54.377Z,93.82
2022-12-23T12:30:21.569Z,93.58
2022-12-23T12:32:48.004Z,94.00
2022-12-23T12:35:37.656Z,93.56
2022-12-23T12:38:17.902Z,94.33
2022-12-23T12:40:51.081Z,94.20
2022-12-23T12:43:40.156Z,93.50
2022-12-23T12:46:06.594Z,93.68
2022-12-23T12:48:47.952Z,93.59
2022-12-23T12:51:26.006Z,93.76
2022-12-23T12:54:15.164Z,94.29
2022-12-23T12:56:48.649Z,93.79
2022-12-23T12:59:19.740Z,94.02
2022-12-23T13:02:13.381Z,94.14
2022-12-23T13:05:00.878Z,94.42
2022-12-23T13:07:52.527Z,93.85
2022-12-23T13:10:34.690Z,94.29
2022-12-23T13:13:07.047Z,93.81
2022-12-23T13:15:47.225Z,94.81
2022-12-23T13:18:27.725Z,93.89
2022-12-23T13:21:03.181Z,93.79
2022-12-23T13:23:46.654Z,93.51
2022-12-23T13:26:23.511Z,93.95
2022-12-23T13:29:21.490Z,94.55
2022-12-23T13:32:02.801Z,94.47
2022-12-23T13:34:53.156Z,94.18
2022-12-23T13:37:36.094Z,93.92
2022-12-23T13:40:26.267Z,93.95
2022-12-23T13:42:56.791Z,94.19
2022-12-23T13:45:27.941Z,94.21
2022-12-23T13:48:15.155Z,93.99
2022-12-23T13:50:57.083Z,94.48
2022-12-23T13:53:47.385Z,94.57
2022-12-23T13:56:24.056Z,94.18
2022-12-23T13:58:51.664Z,94.30
2022-12-23T14:01:18.037Z,93.50
2022-12-23T14:03:44.790Z,94.45
2022-12-23T14:06:23.567Z,94.60
2022-12-23T14:08:51.217Z,94.33
2022-12-23T14:11:31.016Z,93.61
2022-12-23T14:14:02.186Z,94.31
2022-12-23T14:17:16.233Z,94.55
2022-12-23T14:20:23.598Z,93.83
2022-12-23T14:23:07.093Z,94.47
2022-12-23T14:25:59.608Z,94.12
2022-12-23T14:28:50.448Z,94.28
2022-12-23T14:31:53.854Z,94.06
2022-12-23T14:34:20.272Z,94.50
2022-12-23T14:37:20.588Z,93.78
2022-12-23T14:39:47.828Z,93.96
2022-12-23T14:42:34.157Z,94.48
2022-12-23T14:45:35.371Z,94.30
2022-12-23T14:48:23.668Z,94.70
2022-12-23T14:51:00.735Z,94.90
2022-12-23T14:53:32.261Z,94.44
2022-12-23T14:56:32.559Z,94.70
2022-12-23T14:59:23.686Z,95.02
2022-12-23T15:01:53.853Z,94.45
2022-12-23T15:04:34.033Z,94.67
2022-12-23T15:07:06.121Z,94.68
2022-12-23T15:09:47.280Z,94.55
2022-12-23T15:12:18.657Z,93.94
2022-12-23T15:14:50.885Z,94.68
2022-12-23T15:17:32.880Z,94.69
2022-12-23T15:20:18.461Z,94.41
2022-12-23T15:22:45.794Z,94.59
2022-12-23T15:25:39.265Z,94.74
2022-12-23T15:28:06.192Z,94.16
2022-12-23T15:30:36.456Z,94.72
2022-12-23T15:33:35.419Z,95.04
2022-12-23T15:36:39.189Z,95.12
2022-12-23T15:39:33.461Z,95.22
2022-12-23T15:42:17.397Z,94.43
2022-12-23T15:44:47.477Z,94.61
2022-12-23T15:47:50.733Z,94.20
2022-12-23T15:51:12.849Z,94.57
2022-12-23T15:53:58.049Z,95.28
2022-12-23T16:00:29.332Z,94.34
2022-12-23T16:03:08.943Z,94.84
2022-12-23T16:06:08.259Z,94.46
2022-12-23T16:09:08.308Z,94.62
2022-12-23T16:15:56.647Z,94.25
2022-12-23T16:21:49.283Z,94.27
2022-12-23T16:24:53.964Z,94.65
2022-12-23T16:33:58.341Z,94.82
2022-12-23T16:36:31.247Z,94.13
2022-12-23T16:39:24.183Z,95.03
2022-12-23T16:41:59.761Z,94.56
2022-12-23T16:44:35.785Z,95.01
2022-12-23T16:47:20.028Z,94.95
2022-12-23T16:50:11.982Z,94.52
2022-12-23T16:52:45.805Z,94.42
2022-12-23T16:55:22.572Z,94.36
2022-12-23T17:02:29.051Z,94.84
2022-12-23T17:05:14.713Z,94.60
2022-12-23T17:08:08.768Z,95.07
2022-12-23T17:10:59.067Z,94.52
2022-12-23T17:14:15.257Z,94.65
2022-12-23T17:20:51.931Z,94.93
2022-12-23T17:23:48.358Z,95.10
2022-12-23T17:26:25.490Z,94.72
2022-12-23T17:29:04.488Z,94.50
2022-12-23T17:31:50.908Z,94.96
2022-12-23T17:34:39.010Z,94.73
2022-12-23T17:37:29.013Z,94.38
2022-12-23T17:43:38.501Z,95.42
2022-12-23T17:46:20.163Z,95.30
2022-12-23T17:49:06.358Z,94.53
2022-12-23T17:51:43.893Z,94.73
2022-12-23T17:54:47.103Z,94.87
2022-12-23T18:02:00.542Z,94.68
2022-12-23T18:04:42.105Z,94.83
2022-12-23T18:10:13.322Z,95.42
2022-12-23T18:13:04.835Z,95.13
2022-12-23T18:15:43.705Z,94.94
2022-12-23T18:21:53.647Z,95.03
2022-12-23T18:27:41.741Z,95.37
2022-12-23T18:33:31.190Z,95.16
2022-12-23T18:36:38.593Z,95.71
2022-12-23T18:39:22.724Z,95.75
2022-12-23T18:43:30.069Z,95.23
2022-12-23T18:50:30.654Z,95.82
2022-12-23T18:56:49.348Z,96.02
2022-12-23T18:59:48.764Z,95.12
2022-12-23T19:02:24.952Z,95.55
2022-12-23T19:05:11.379Z,95.76
2022-12-23T19:08:03.608Z,95.96
2022-12-23T19:13:04.910Z,95.76
2022-12-23T19:15:31.859Z,95.76
2022-12-23T19:17:58.251Z,95.51
2022-12-23T19:20:24.737Z,95.59
2022-12-23T19:22:51.085Z,95.33
2022-12-23T19:25:18.812Z,95.36
2022-12-23T19:27:45.986Z,95.29
2022-12-23T19:30:16.321Z,95.22
2022-12-23T19:32:43.248Z,95.72
2022-12-23T19:35:14.710Z,95.44
2022-12-23T19:37:42.079Z,95.05
2022-12-23T19:40:09.337Z,94.79
2022-12-23T19:42:39.409Z,94.76
2022-12-23T19:45:08.742Z,95.46
2022-12-23T19:47:35.822Z,95.28
2022-12-23T19:50:02.396Z,95.22
2022-12-23T19:52:28.789Z,95.67
2022-12-23T19:54:55.359Z,94.76
2022-12-23T19:57:21.982Z,95.29
2022-12-23T19:59:48.438Z,95.10
2022-12-23T20:02:16.046Z,95.15
2022-12-23T20:04:43.236Z,95.23
2022-12-23T20:07:10.333Z,95.22
2022-12-23T20:09:37.009Z,94.87
2022-12-23T20:12:03.974Z,95.24
2022-12-23T20:14:34.075Z,95.43
2022-12-23T20:17:00.903Z,95.31
2022-12-23T20:19:27.640Z,95.15
2022-12-23T20:21:54.075Z,95.34
2022-12-23T20:24:20.497Z,95.72
2022-12-23T20:26:47.488Z,95.58
2022-12-23T20:29:14.355Z,95.46
2022-12-23T20:31:41.390Z,94.93
2022-12-23T20:34:10.900Z,94.93
2022-12-23T20:36:38.207Z,94.77
2022-12-23T20:39:05.084Z,94.45
2022-12-23T20:41:32.917Z,94.91
2022-12-23T20:46:46.473Z,95.22
2022-12-23T20:49:13.076Z,94.64
2022-12-23T20:51:39.453Z,94.83
2022-12-23T20:54:05.865Z,94.60
2022-12-23T20:56:32.317Z,94.74
2022-12-23T20:59:00.134Z,94.23
2022-12-23T21:01:33.321Z,94.68
2022-12-23T21:04:02.350Z,94.31
2022-12-23T21:06:30.814Z,94.28
2022-12-23T21:08:59.428Z,94.09
2022-12-23T21:11:30.675Z,94.63
2022-12-23T21:14:01.206Z,94.42
2022-12-23T21:16:33.413Z,94.12
2022-12-23T21:18:59.977Z,95.04
2022-12-23T21:21:27.780Z,94.58
2022-12-23T21:23:55.903Z,94.17
2022-12-23T21:26:24.689Z,94.63
2022-12-23T21:28:52.468Z,94.49
2022-12-23T21:31:21.678Z,94.15
2022-12-23T21:33:50.100Z,93.85
2022-12-23T21:36:20.494Z,94.13
2022-12-23T21:38:48.717Z,95.19
2022-12-23T21:41:20.131Z,94.08
2022-12-23T21:43:46.825Z,94.26
2022-12-23T21:46:16.077Z,94.29
2022-12-23T21:48:42.840Z,94.17
2022-12-23T21:51:13.517Z,94.23
2022-12-23T21:53:40.840Z,93.88
2022-12-23T21:56:13.292Z,94.11
2022-12-23T21:58:40.545Z,93.99
2022-12-23T22:01:13.388Z,94.21
2022-12-23T22:03:40.227Z,93.63
2022-12-23T22:06:15.379Z,93.77
2022-12-23T22:08:42.849Z,94.40
2022-12-23T22:11:18.393Z,93.63
2022-12-23T22:13:45.337Z,93.58
2022-12-23T22:16:14.072Z,93.85
2022-12-23T22:18:41.005Z,93.38
2022-12-23T22:21:09.604Z,93.34
2022-12-23T22:23:37.186Z,93.37
2022-12-23T22:26:04.686Z,92.43
2022-12-23T22:28:32.619Z,92.83
2022-12-23T22:31:04.122Z,92.81
2022-12-23T22:33:31.615Z,92.70
2022-12-23T22:35:58.247Z,93.04
2022-12-23T22:38:26.216Z,92.73
2022-12-23T22:40:53.389Z,93.25
2022-12-23T22:43:20.587Z,92.88
2022-12-23T22:45:47.281Z,92.95
2022-12-23T22:48:13.819Z,93.41
2022-12-23T22:50:40.235Z,92.72
2022-12-23T22:53:06.827Z,92.54
2022-12-23T22:55:33.273Z,93.48
2022-12-23T22:57:59.660Z,93.07
2022-12-23T23:00:26.106Z,92.81
2022-12-23T23:02:52.541Z,92.68
2022-12-23T23:05:19.703Z,93.01
2022-12-23T23:07:46.148Z,93.04
2022-12-23T23:10:12.615Z,93.21
2022-12-23T23:12:39.027Z,92.52
2022-12-23T23:15:05.923Z,92.64
2022-12-23T23:17:32.352Z,92.72
2022-12-23T23:19:58.857Z,92.21
2022-12-23T23:22:25.447Z,92.60
2022-12-23T23:24:52.508Z,91.79
2022-12-23T23:27:19.501Z,92.38
2022-12-23T23:29:45.976Z,92.53
2022-12-23T23:32:12.576Z,91.93
2022-12-23T23:34:40.524Z,92.06
2022-12-23T23:37:06.906Z,91.57
2022-12-23T23:39:33.286Z,92.37
2022-12-23T23:41:59.673Z,92.22
2022-12-23T23:44:26.123Z,91.72
2022-12-23T23:46:52.565Z,92.26
2022-12-23T23:49:20.703Z,91.78
2022-12-23T23:51:47.172Z,91.52
2022-12-23T23:54:13.556Z,91.13
2022-12-23T23:56:40.069Z,91.44
2022-12-23T23:59:07.942Z,91.59
